createdAt,value
2022-12-23T00:01:31.705Z,54.94
2022-12-23T00:06:33.959Z,54.80
2022-12-23T00:11:36.253Z,54.85
2022-12-23T00:16:39.836Z,54.88
2022-12-23T00:21:42.106Z,54.92
2022-12-23T00:26:44.192Z,55.04
2022-12-23T00:31:46.351Z,54.95
2022-12-23T00:36:48.481Z,55.00
2022-12-23T00:42:08.993Z,55.04
2022-12-23T00:47:31.030Z,54.94
2022-12-23T00:52:32.863Z,54.86
2022-12-23T00:57:35.002Z,54.81
2022-12-23T01:02:55.801Z,55.10
2022-12-23T01:07:58.013Z,55.23
2022-12-23T01:13:00.168Z,55.20
2022-12-23T01:18:02.429Z,55.02
2022-12-23T01:23:05.084Z,54.86
2022-12-23T01:28:07.454Z,54.81
2022-12-23T01:33:09.534Z,55.12
2022-12-23T01:38:12.144Z,55.22
2022-12-23T01:43:17.065Z,55.22
2022-12-23T01:48:27.092Z,55.16
2022-12-23T01:53:33.435Z,55.04
2022-12-23T01:58:42.546Z,55.05
2022-12-23T02:03:46.997Z,55.12
2022-12-23T02:09:07.868Z,55.27
2022-12-23T02:14:44.872Z,55.04
2022-12-23T02:20:17.848Z,55.25
2022-12-23T02:25:52.617Z,55.19
2022-12-23T02:31:03.061Z,55.25
2022-12-23T02:36:31.412Z,55.44
2022-12-23T02:41:51.691Z,55.57
2022-12-23T02:47:00.746Z,55.37
2022-12-23T02:52:08.454Z,55.38
2022-12-23T02:57:13.745Z,55.47
2022-12-23T03:02:15.996Z,55.28
2022-12-23T03:07:42.965Z,55.46
2022-12-23T03:12:54.286Z,55.44
2022-12-23T03:18:24.806Z,55.35
2022-12-23T03:23:39.644Z,55.36
2022-12-23T03:28:59.486Z,55.43
2022-12-23T03:34:06.707Z,55.46
2022-12-23T03:39:13.287Z,55.08
2022-12-23T03:44:27.881Z,55.25
2022-12-23T03:49:36.012Z,55.14
2022-12-23T03:54:53.937Z,54.89
2022-12-23T03:59:56.553Z,55.00
2022-12-23T04:05:21.436Z,55.04
2022-12-23T04:10:25.265Z,55.15
2022-12-23T04:15:27.860Z,55.30
2022-12-23T04:20:30.987Z,55.12
2022-12-23T04:25:33.175Z,55.32
2022-12-23T04:30:36.650Z,55.26
2022-12-23T04:35:38.892Z,55.27
2022-12-23T04:40:41.041Z,55.28
2022-12-23T04:45:43.357Z,55.39
2022-12-23T04:50:45.594Z,55.30
2022-12-23T04:55:51.869Z,55.47
2022-12-23T05:01:05.778Z,55.48
2022-12-23T05:06:08.312Z,55.16
2022-12-23T05:11:10.380Z,55.58
2022-12-23T05:16:12.548Z,55.53
2022-12-23T05:21:15.107Z,55.33
2022-12-23T05:26:17.201Z,55.31
2022-12-23T05:31:20.166Z,55.46
2022-12-23T05:36:22.410Z,55.25
2022-12-23T05:41:24.793Z,55.34
2022-12-23T05:46:27.479Z,55.17
2022-12-23T05:51:29.828Z,54.94
2022-12-23T05:56:31.964Z,54.99
2022-12-23T06:01:34.275Z,55.13
2022-12-23T06:06:36.630Z,55.12
2022-12-23T06:11:38.802Z,54.98
2022-12-23T06:16:40.964Z,55.00
2022-12-23T06:21:43.288Z,54.89
2022-12-23T06:26:45.377Z,54.60
2022-12-23T06:31:47.939Z,54.60
2022-12-23T06:36:50.343Z,54.71
2022-12-23T06:41:52.494Z,54.83
2022-12-23T06:46:54.637Z,54.49
2022-12-23T06:51:56.856Z,54.94
2022-12-23T06:56:59.155Z,55.14
2022-12-23T07:02:01.475Z,55.16
2022-12-23T07:07:03.828Z,55.18
2022-12-23T07:12:06.343Z,55.24
2022-12-23T07:17:08.665Z,55.04
2022-12-23T07:22:11.109Z,54.83
2022-12-23T07:27:13.343Z,54.91
2022-12-23T07:32:15.353Z,54.78
2022-12-23T07:37:17.508Z,54.58
2022-12-23T07:42:47.399Z,54.45
2022-12-23T07:47:42.317Z,54.70
2022-12-23T07:52:44.518Z,54.91
2022-12-23T07:57:50.903Z,54.62
2022-12-23T08:02:53.317Z,54.59
2022-12-23T08:07:55.549Z,54.42
2022-12-23T08:13:01.358Z,54.55
2022-12-23T08:18:03.524Z,54.72
2022-12-23T08:23:05.629Z,54.85
2022-12-23T08:28:07.720Z,54.87
2022-12-23T08:33:09.864Z,54.78
2022-12-23T08:38:12.103Z,54.79
2022-12-23T08:43:14.192Z,54.88
2022-12-23T08:48:16.858Z,54.72
2022-12-23T08:53:19.066Z,54.41
2022-12-23T08:58:21.171Z,54.48
2022-12-23T09:03:23.366Z,54.79
2022-12-23T09:08:26.206Z,54.68
2022-12-23T09:13:35.211Z,54.59
2022-12-23T09:18:38.496Z,54.73
2022-12-23T09:23:41.614Z,54.46
2022-12-23T09:28:43.658Z,54.40
2022-12-23T09:33:51.023Z,54.33
2022-12-23T09:38:57.745Z,53.95
2022-12-23T09:44:21.816Z,54.11
2022-12-23T09:49:24.269Z,54.49
2022-12-23T09:54:29.669Z,54.79
2022-12-23T09:59:37.759Z,54.99
2022-12-23T10:04:56.922Z,55.01
2022-12-23T10:10:03.465Z,55.28
2022-12-23T10:15:22.497Z,55.36
2022-12-23T10:20:40.225Z,55.18
2022-12-23T10:25:50.971Z,55.01
2022-12-23T10:37:05.141Z,55.33
2022-12-23T10:42:22.470Z,55.36
2022-12-23T10:47:39.593Z,55.30
2022-12-23T10:52:45.678Z,55.35
2022-12-23T10:57:48.244Z,55.46
2022-12-23T11:03:18.306Z,55.41
2022-12-23T11:08:22.191Z,55.73
2022-12-23T11:13:35.716Z,55.80
2022-12-23T11:18:42.055Z,55.63
2022-12-23T11:23:44.457Z,55.78
2022-12-23T11:28:52.569Z,56.11
2022-12-23T11:34:02.816Z,56.84
2022-12-23T11:39:10.838Z,57.39
2022-12-23T11:44:28.194Z,58.09
2022-12-23T11:49:33.951Z,58.42
2022-12-23T11:54:37.025Z,58.64
2022-12-23T11:59:42.839Z,58.67
2022-12-23T12:05:02.011Z,58.98
2022-12-23T12:10:05.131Z,59.32
2022-12-23T12:15:17.790Z,59.18
2022-12-23T12:20:39.581Z,59.62
2022-12-23T12:25:49.916Z,60.02
2022-12-23T12:31:04.906Z,60.02
2022-12-23T12:36:11.575Z,60.06
2022-12-23T12:41:50.601Z,60.54
2022-12-23T12:47:52.220Z,60.32
2022-12-23T12:52:43.436Z,60.14
2022-12-23T12:57:45.854Z,60.01
2022-12-23T13:03:02.006Z,60.13
2022-12-23T13:08:26.719Z,60.02
2022-12-23T13:13:56.639Z,59.92
2022-12-23T13:19:20.120Z,60.00
2022-12-23T13:24:29.876Z,60.03
2022-12-23T13:30:04.989Z,59.82
2022-12-23T13:35:25.732Z,60.06
2022-12-23T13:40:57.803Z,60.25
2022-12-23T13:46:04.087Z,60.05
2022-12-23T13:51:06.152Z,60.43
2022-12-23T13:56:30.064Z,60.72
2022-12-23T14:01:36.514Z,60.82
2022-12-23T14:06:38.541Z,61.01
2022-12-23T14:11:40.944Z,61.32
2022-12-23T14:17:16.614Z,61.33
2022-12-23T14:23:00.063Z,61.07
2022-12-23T14:28:25.106Z,60.93
2022-12-23T14:33:34.228Z,61.39
2022-12-23T14:38:36.465Z,60.99
2022-12-23T14:43:44.658Z,61.05
2022-12-23T14:48:46.728Z,61.16
2022-12-23T14:53:52.545Z,61.24
2022-12-23T14:59:12.689Z,60.96
2022-12-23T15:04:14.729Z,60.72
2022-12-23T15:09:37.631Z,60.73
2022-12-23T15:15:02.192Z,60.60
2022-12-23T15:20:10.265Z,59.93
2022-12-23T15:25:31.892Z,59.74
2022-12-23T15:30:37.600Z,59.65
2022-12-23T15:35:40.646Z,59.63
2022-12-23T15:40:43.876Z,59.11
2022-12-23T15:45:46.509Z,59.05
2022-12-23T15:50:50.524Z,59.17
2022-12-23T15:55:52.709Z,59.01
2022-12-23T16:00:59.385Z,58.74
2022-12-23T16:06:25.890Z,58.61
2022-12-23T16:11:40.797Z,58.71
2022-12-23T16:16:43.815Z,58.41
2022-12-23T16:21:46.006Z,58.32
2022-12-23T16:26:48.174Z,58.10
2022-12-23T16:31:57.421Z,58.20
2022-12-23T16:37:03.192Z,58.41
2022-12-23T16:42:05.372Z,58.12
2022-12-23T16:47:13.401Z,57.96
2022-12-23T16:52:15.771Z,58.03
2022-12-23T16:57:17.864Z,57.62
2022-12-23T17:02:23.951Z,57.37
2022-12-23T17:07:27.009Z,57.32
2022-12-23T17:12:29.135Z,57.21
2022-12-23T17:17:31.550Z,57.21
2022-12-23T17:22:36.094Z,56.87
2022-12-23T17:27:38.146Z,56.64
2022-12-23T17:32:40.319Z,56.43
2022-12-23T17:37:42.843Z,56.65
2022-12-23T17:42:45.669Z,56.39
2022-12-23T17:47:47.808Z,56.31
2022-12-23T17:52:52.392Z,56.34
2022-12-23T17:57:55.725Z,56.31
2022-12-23T18:02:57.873Z,56.36
2022-12-23T18:08:01.760Z,56.51
2022-12-23T18:13:06.923Z,56.42
2022-12-23T18:18:24.435Z,56.42
2022-12-23T18:23:31.716Z,56.42
2022-12-23T18:28:33.876Z,55.99
2022-12-23T18:33:35.961Z,55.91
2022-12-23T18:38:38.054Z,56.17
2022-12-23T18:43:40.158Z,56.01
2022-12-23T18:48:42.317Z,55.98
2022-12-23T18:53:45.598Z,55.83
2022-12-23T18:58:47.987Z,55.88
2022-12-23T19:03:50.059Z,56.04
2022-12-23T19:08:52.122Z,55.90
2022-12-23T19:13:54.241Z,56.04
2022-12-23T19:18:56.360Z,55.95
2022-12-23T19:23:58.771Z,55.97
2022-12-23T19:29:01.039Z,56.18
2022-12-23T19:34:03.572Z,56.22
2022-12-23T19:39:05.659Z,56.33
2022-12-23T19:44:08.087Z,56.28
2022-12-23T19:49:17.537Z,56.42
2022-12-23T19:54:21.805Z,56.27
2022-12-23T19:59:24.161Z,56.12
2022-12-23T20:04:26.514Z,55.97
2022-12-23T20:09:28.679Z,55.96
2022-12-23T20:14:34.018Z,55.86
2022-12-23T20:19:42.063Z,56.05
2022-12-23T20:24:47.944Z,56.24
2022-12-23T20:29:50.094Z,56.18
2022-12-23T20:34:52.158Z,56.24
2022-12-23T20:39:54.370Z,56.43
2022-12-23T20:44:56.407Z,56.55
2022-12-23T20:49:58.433Z,56.37
2022-12-23T20:55:01.902Z,56.08
2022-12-23T21:00:07.747Z,56.39
2022-12-23T21:05:09.873Z,56.37
2022-12-23T21:10:12.107Z,56.66
2022-12-23T21:15:14.183Z,56.50
2022-12-23T21:20:16.407Z,56.52
2022-12-23T21:25:18.447Z,56.67
2022-12-23T21:30:20.704Z,56.63
2022-12-23T21:35:22.802Z,56.54
2022-12-23T21:40:24.969Z,56.31
2022-12-23T21:45:27.098Z,56.58
2022-12-23T21:50:29.980Z,56.59
2022-12-23T21:55:32.088Z,56.30
2022-12-23T22:00:34.233Z,56.24
2022-12-23T22:05:36.333Z,56.28
2022-12-23T22:10:39.665Z,56.47
2022-12-23T22:15:43.142Z,56.47
2022-12-23T22:20:46.504Z,56.28
2022-12-23T22:25:55.608Z,55.98
2022-12-23T22:31:06.974Z,55.84
2022-12-23T22:36:12.051Z,55.75
2022-12-23T22:41:16.239Z,55.95
2022-12-23T22:46:18.545Z,55.85
2022-12-23T22:51:23.925Z,55.94
2022-12-23T22:56:26.767Z,55.94
2022-12-23T23:01:34.527Z,56.07
2022-12-23T23:06:38.827Z,56.35
2022-12-23T23:11:41.315Z,56.43
2022-12-23T23:16:43.557Z,56.66
2022-12-23T23:21:45.900Z,56.92
2022-12-23T23:26:48.088Z,56.70
2022-12-23T23:31:50.374Z,56.78
2022-12-23T23:36:52.826Z,57.49
2022-12-23T23:41:55.306Z,57.49
2022-12-23T23:46:57.446Z,57.35
2022-12-23T23:51:59.526Z,57.65
2022-12-23T23:57:01.678Z,57.34
